Terminal Aerodrome Forecast
Issued by NWS

Home | Current Version | Previous Version | Text Only | Print | Product List | Glossary On
Versions: 1 2 3 4 5 6 7 8 9 10 11 12 13 14 15 16 17 18 19 20 21 22 23 24 25 26 27 28 29 30 31
000
FTUS45 KGGW 281700
TAFOLF
TAF
KOLF 281728Z 2818/2918 27030G40KT 6SM -RA SCT020 OVC030
      TEMPO 2818/2821 29033G45KT 3SM RA BKN020 OVC030
     FM290000 29025G35KT P6SM VCSH BKN040
     FM290300 28015KT P6SM BKN070
     FM290600 27010KT P6SM SCT200=

USA.gov is the U.S. government's official web portal to all federal, state and local government web resources and services.